createdAt,value
2022-09-12T00:00:46.137Z,576.4
2022-09-12T00:01:48.613Z,576.5
2022-09-12T00:02:50.257Z,576.8
2022-09-12T00:03:52.728Z,576.8
2022-09-12T00:04:55.217Z,576.7
2022-09-12T00:05:57.717Z,576.8
2022-09-12T00:06:59.914Z,577
2022-09-12T00:08:02.404Z,577.2
2022-09-12T00:09:04.870Z,577.1
2022-09-12T00:10:07.342Z,577.2
2022-09-12T00:11:09.805Z,577.5
2022-09-12T00:12:12.394Z,577.4
2022-09-12T00:13:14.872Z,577.4
2022-09-12T00:14:17.341Z,577.4
2022-09-12T00:15:19.554Z,577.4
2022-09-12T00:16:22.464Z,577.6
2022-09-12T00:17:24.952Z,577.7
2022-09-12T00:18:27.425Z,578.1
2022-09-12T00:19:29.628Z,577.8
2022-09-12T00:20:32.119Z,577.8
2022-09-12T00:21:34.038Z,577.7
2022-09-12T00:22:36.515Z,578.2
2022-09-12T00:23:39.010Z,578.1
2022-09-12T00:24:41.210Z,578
2022-09-12T00:25:43.687Z,578.4
2022-09-12T00:26:45.866Z,577.8
2022-09-12T00:27:48.360Z,577.9
2022-09-12T00:28:50.568Z,578.3
2022-09-12T00:29:52.763Z,578.4
2022-09-12T00:30:55.275Z,578.3
2022-09-12T00:31:58.099Z,578.5
2022-09-12T00:33:00.333Z,578.6
2022-09-12T00:34:02.947Z,578.3
2022-09-12T00:35:05.417Z,578.6
2022-09-12T00:36:07.908Z,578.8
2022-09-12T00:37:10.084Z,578.8
2022-09-12T00:38:12.264Z,578.7
2022-09-12T00:39:14.765Z,578.7
2022-09-12T00:40:17.497Z,579
2022-09-12T00:41:19.719Z,578.9
2022-09-12T00:42:22.188Z,579.1
2022-09-12T00:43:24.679Z,579.1
2022-09-12T00:44:26.576Z,578.9
2022-09-12T00:45:29.251Z,579
2022-09-12T00:46:31.763Z,579.6
2022-09-12T00:47:34.269Z,579.3
2022-09-12T00:48:36.918Z,579.6
2022-09-12T00:49:39.391Z,580
2022-09-12T00:50:41.852Z,580.1
2022-09-12T00:51:44.350Z,579.9
2022-09-12T00:52:46.829Z,580.1
2022-09-12T00:53:49.296Z,580.2
2022-09-12T00:54:51.815Z,580
2022-09-12T00:55:53.732Z,580.1
2022-09-12T00:56:55.931Z,579.7
2022-09-12T00:57:58.136Z,580.5
2022-09-12T00:59:00.344Z,580.2
2022-09-12T01:00:02.544Z,580.3
2022-09-12T01:01:05.631Z,580.2
2022-09-12T01:02:08.891Z,580.6
2022-09-12T01:03:11.449Z,580.7
2022-09-12T01:04:13.644Z,580.6
2022-09-12T01:05:15.841Z,580.4
2022-09-12T01:06:18.313Z,581
2022-09-12T01:07:20.809Z,580.6
2022-09-12T01:08:23.282Z,580.6
2022-09-12T01:09:25.207Z,580.7
2022-09-12T01:10:27.437Z,580.7
2022-09-12T01:11:29.918Z,580.7
2022-09-12T01:12:32.392Z,580.8
2022-09-12T01:13:34.863Z,581.1
2022-09-12T01:14:37.085Z,580.8
2022-09-12T01:15:39.011Z,581
2022-09-12T01:16:41.686Z,581
2022-09-12T01:17:43.650Z,581.1
2022-09-12T01:18:46.713Z,581.4
2022-09-12T01:19:49.278Z,581.4
2022-09-12T01:20:51.451Z,581.6
2022-09-12T01:21:53.923Z,581.8
2022-09-12T01:22:56.140Z,582
2022-09-12T01:23:58.332Z,581.8
2022-09-12T01:25:00.812Z,582
2022-09-12T01:26:03.028Z,582.2
2022-09-12T01:27:05.222Z,582.7
2022-09-12T01:28:07.419Z,582.5
2022-09-12T01:29:09.890Z,582.5
2022-09-12T01:30:12.375Z,582.4
2022-09-12T01:31:14.847Z,582.7
2022-09-12T01:32:17.540Z,582.4
2022-09-12T01:33:20.030Z,582.7
2022-09-12T01:34:22.535Z,582.5
2022-09-12T01:35:24.457Z,582.6
2022-09-12T01:36:26.928Z,582.9
2022-09-12T01:37:29.394Z,582.9
2022-09-12T01:38:31.882Z,583.3
2022-09-12T01:39:34.351Z,583.6
2022-09-12T01:40:36.274Z,583.1
2022-09-12T01:41:38.544Z,583.1
2022-09-12T01:42:41.024Z,583
2022-09-12T01:43:43.492Z,582.7
2022-09-12T01:44:45.675Z,582.8
2022-09-12T01:45:48.153Z,583.1
2022-09-12T01:46:50.621Z,583
2022-09-12T01:47:53.105Z,583
2022-09-12T01:48:55.594Z,583
2022-09-12T01:49:57.844Z,583.3
2022-09-12T01:51:00.038Z,583.8
2022-09-12T01:52:02.514Z,583.4
2022-09-12T01:53:04.144Z,583.4
2022-09-12T01:54:06.355Z,583.5
2022-09-12T01:56:13.833Z,583.9
2022-09-12T01:57:16.309Z,583.9
2022-09-12T01:58:18.781Z,584
2022-09-12T01:59:20.970Z,583.9
2022-09-12T02:00:23.174Z,584
2022-09-12T02:01:26.076Z,584.1
2022-09-12T02:02:28.258Z,584.2
2022-09-12T02:03:30.802Z,584.4
2022-09-12T02:05:38.297Z,584.6
2022-09-12T02:06:40.773Z,584.9
2022-09-12T02:07:43.244Z,585.1
2022-09-12T02:08:46.250Z,585
2022-09-12T02:09:48.807Z,585.1
2022-09-12T02:10:51.273Z,585.3
2022-09-12T02:11:53.477Z,585.1
2022-09-12T02:12:55.972Z,585.4
2022-09-12T02:13:58.465Z,585.6
2022-09-12T02:15:00.935Z,585.7
2022-09-12T02:16:03.130Z,585.6
2022-09-12T02:17:05.616Z,585.4
2022-09-12T02:18:08.092Z,585.7
2022-09-12T02:19:10.572Z,585.9
2022-09-12T02:21:17.796Z,586.1
2022-09-12T02:22:20.001Z,585.9
2022-09-12T02:23:22.210Z,586.4
2022-09-12T02:24:24.674Z,586.3
2022-09-12T02:25:27.175Z,586.4
2022-09-12T02:26:29.633Z,586.1
2022-09-12T02:27:31.836Z,586.3
2022-09-12T02:28:34.044Z,586.6
2022-09-12T02:29:36.242Z,586.6
2022-09-12T02:30:38.878Z,586.6
2022-09-12T02:31:40.815Z,586.6
2022-09-12T02:32:43.315Z,586.4
2022-09-12T02:33:45.790Z,586.5
2022-09-12T02:34:47.994Z,586.1
2022-09-12T02:35:50.207Z,585.9
2022-09-12T02:36:52.696Z,585.9
2022-09-12T02:37:55.163Z,586.5
2022-09-12T02:38:57.650Z,586.5
2022-09-12T02:40:00.501Z,586.1
2022-09-12T02:41:02.751Z,586.3
2022-09-12T02:42:04.947Z,586.5
2022-09-12T02:43:07.419Z,587
2022-09-12T02:44:09.643Z,586.9
2022-09-12T02:45:12.114Z,586.7
2022-09-12T02:46:14.596Z,586.9
2022-09-12T02:47:17.072Z,587.2
2022-09-12T02:48:19.563Z,586.9
2022-09-12T02:49:22.029Z,587
2022-09-12T02:50:24.502Z,586.9
2022-09-12T02:51:26.708Z,587.1
2022-09-12T02:52:29.200Z,587.1
2022-09-12T02:53:31.689Z,586.7
2022-09-12T02:54:33.901Z,587.1
2022-09-12T02:55:36.365Z,586.8
2022-09-12T02:56:38.852Z,586.9
2022-09-12T02:57:41.051Z,587.3
2022-09-12T02:58:43.596Z,586.8
2022-09-12T02:59:45.808Z,586.9
2022-09-12T03:00:48.297Z,587.1
2022-09-12T03:01:50.857Z,587.6
2022-09-12T03:02:53.352Z,587.6
2022-09-12T03:03:55.560Z,587.4
2022-09-12T03:04:58.036Z,587.6
2022-09-12T03:06:00.225Z,587.4
2022-09-12T03:07:02.439Z,587.4
2022-09-12T03:08:04.359Z,587.4
2022-09-12T03:09:06.573Z,587.6
2022-09-12T03:10:08.769Z,587.4
2022-09-12T03:11:11.260Z,587.6
2022-09-12T03:12:13.748Z,587.6
2022-09-12T03:13:16.239Z,588
2022-09-12T03:14:18.717Z,587.9
2022-09-12T03:15:21.203Z,587.8
2022-09-12T03:16:23.836Z,587.9
2022-09-12T03:17:26.036Z,587.8
2022-09-12T03:18:27.958Z,588.1
2022-09-12T03:19:30.449Z,588
2022-09-12T03:20:32.620Z,587.9
2022-09-12T03:21:34.567Z,588.2
2022-09-12T03:22:37.065Z,588
2022-09-12T03:23:39.276Z,588.1
2022-09-12T03:24:41.458Z,588
2022-09-12T03:25:43.931Z,588
2022-09-12T03:26:46.399Z,588.3
2022-09-12T03:27:48.596Z,588.2
2022-09-12T03:28:50.781Z,587.7
2022-09-12T03:29:52.966Z,588.2
2022-09-12T03:30:55.620Z,588.1
2022-09-12T03:31:58.113Z,588.3
2022-09-12T03:33:00.601Z,588.1
2022-09-12T03:34:03.093Z,588.1
2022-09-12T03:35:05.577Z,588.2
2022-09-12T03:36:08.041Z,588.2
2022-09-12T03:37:10.242Z,588.2
2022-09-12T03:38:12.461Z,588.3
2022-09-12T03:39:14.970Z,588
2022-09-12T03:40:17.382Z,588
2022-09-12T03:41:19.019Z,587.9
2022-09-12T03:42:21.492Z,588.5
2022-09-12T03:43:23.985Z,588.5
2022-09-12T03:44:26.450Z,588.2
2022-09-12T03:45:29.015Z,588.6
2022-09-12T03:46:31.498Z,588.6
2022-09-12T03:47:33.977Z,588.4
2022-09-12T03:48:36.732Z,588.9
2022-09-12T03:49:38.930Z,588.5
2022-09-12T03:50:41.147Z,588.8
2022-09-12T03:51:43.345Z,588.7
2022-09-12T03:52:45.246Z,588.4
2022-09-12T03:53:47.470Z,588.6
2022-09-12T03:54:49.968Z,588.5
2022-09-12T03:55:52.436Z,588
2022-09-12T03:56:54.903Z,588.2
2022-09-12T03:57:57.385Z,588.1
2022-09-12T03:58:59.596Z,588.3
2022-09-12T04:00:01.527Z,588.5
2022-09-12T04:01:04.006Z,588.5
2022-09-12T04:02:06.762Z,588.4
2022-09-12T04:03:09.253Z,588.5
2022-09-12T04:04:11.722Z,588.2
2022-09-12T04:05:13.647Z,588.6
2022-09-12T04:06:16.136Z,588.1
2022-09-12T04:07:18.620Z,588.1
2022-09-12T04:08:21.086Z,588.1
2022-09-12T04:09:23.575Z,588.2
2022-09-12T04:10:26.063Z,587.7
2022-09-12T04:11:28.526Z,588.1
2022-09-12T04:12:30.746Z,588.4
2022-09-12T04:13:33.220Z,588
2022-09-12T04:14:35.700Z,587.6
2022-09-12T04:15:37.612Z,587.7
2022-09-12T04:16:40.229Z,587.9
2022-09-12T04:17:42.475Z,588
2022-09-12T04:18:45.413Z,587.7
2022-09-12T04:19:48.235Z,588.3
2022-09-12T04:20:50.437Z,587.9
2022-09-12T04:21:52.931Z,587.8
2022-09-12T04:22:55.401Z,587.8
2022-09-12T04:23:57.602Z,587.9
2022-09-12T04:24:59.790Z,587.8
2022-09-12T04:26:02.290Z,587.7
2022-09-12T04:28:09.743Z,587.9
2022-09-12T04:29:12.216Z,587.5
2022-09-12T04:30:14.713Z,587.6
2022-09-12T04:31:16.900Z,587.4
2022-09-12T04:32:19.370Z,587.7
2022-09-12T04:33:21.564Z,587.8
2022-09-12T04:34:24.039Z,587.7
2022-09-12T04:35:25.937Z,587.6
2022-09-12T04:36:28.136Z,587.9
2022-09-12T04:37:30.349Z,587.4
2022-09-12T04:38:32.818Z,587.6
2022-09-12T04:39:35.023Z,587.6
2022-09-12T04:40:37.543Z,587.6
2022-09-12T04:41:40.039Z,587.9
2022-09-12T04:42:42.235Z,587.9
2022-09-12T04:43:44.701Z,588
2022-09-12T04:44:46.615Z,587.9
2022-09-12T04:45:49.312Z,588.2
2022-09-12T04:46:51.782Z,588
2022-09-12T04:47:53.980Z,587.6
2022-09-12T04:50:01.483Z,588
2022-09-12T04:51:03.951Z,588.3
2022-09-12T04:52:06.158Z,587.9
2022-09-12T04:53:08.366Z,588.3
2022-09-12T04:54:10.855Z,587.9
2022-09-12T04:55:13.333Z,588
2022-09-12T04:56:15.555Z,588.2
2022-09-12T04:57:18.049Z,588.2
2022-09-12T04:58:20.513Z,588.2
2022-09-12T04:59:22.984Z,588.1
2022-09-12T05:00:25.205Z,587.9
2022-09-12T05:01:27.788Z,587.8
2022-09-12T05:02:30.558Z,587.8
2022-09-12T05:03:32.786Z,587.8
2022-09-12T05:04:34.684Z,587.8
2022-09-12T05:05:37.170Z,588
2022-09-12T05:06:39.662Z,587.7
2022-09-12T05:07:41.864Z,588
2022-09-12T05:08:44.578Z,587.9
2022-09-12T05:09:46.788Z,587.7
2022-09-12T05:10:48.711Z,587.9
2022-09-12T05:12:56.204Z,587.8
2022-09-12T05:13:58.406Z,587.6
2022-09-12T05:15:00.876Z,587.4
2022-09-12T05:16:02.779Z,587.5
2022-09-12T05:17:05.519Z,587.4
2022-09-12T05:18:07.726Z,587.3
2022-09-12T05:19:09.920Z,587.3
2022-09-12T05:20:12.118Z,587.4
2022-09-12T05:21:14.340Z,587.3
2022-09-12T05:22:16.812Z,587.4
2022-09-12T05:23:19.296Z,587.6
2022-09-12T05:24:21.893Z,587.1
2022-09-12T05:25:24.375Z,587.1
2022-09-12T05:26:26.847Z,586.7
2022-09-12T05:27:29.038Z,587
2022-09-12T05:28:31.317Z,586.7
2022-09-12T05:29:33.251Z,586.5
2022-09-12T05:30:35.939Z,586.7
2022-09-12T05:31:38.147Z,586.4
2022-09-12T05:32:40.641Z,586.4
2022-09-12T05:33:43.127Z,586
2022-09-12T05:34:45.335Z,586.2
2022-09-12T05:35:47.528Z,586.1
2022-09-12T05:36:50.029Z,585.8
2022-09-12T05:37:52.211Z,586
2022-09-12T05:38:54.420Z,586
2022-09-12T05:39:57.199Z,586.1
2022-09-12T05:40:59.707Z,586
2022-09-12T05:42:01.649Z,586.2
2022-09-12T05:43:03.862Z,586
2022-09-12T05:44:06.369Z,586.1
2022-09-12T05:45:08.556Z,585.9
2022-09-12T05:46:10.423Z,586.1
2022-09-12T05:47:12.911Z,586
2022-09-12T05:48:15.397Z,586
2022-09-12T05:49:17.611Z,585.6
2022-09-12T05:50:20.098Z,586.2
2022-09-12T05:51:22.007Z,585.6
2022-09-12T05:52:24.223Z,586.1
2022-09-12T05:53:26.743Z,585.7
2022-09-12T05:55:33.713Z,585.9
2022-09-12T05:56:36.184Z,586
2022-09-12T05:57:38.659Z,585.8
2022-09-12T05:58:41.234Z,586.1
2022-09-12T05:59:43.484Z,586.1
2022-09-12T06:00:45.944Z,585.9
2022-09-12T06:01:48.940Z,585.7
2022-09-12T06:02:51.571Z,585.7
2022-09-12T06:03:53.779Z,585.8
2022-09-12T06:04:56.258Z,585.3
2022-09-12T06:05:58.440Z,585.8
2022-09-12T06:07:00.348Z,585.4
2022-09-12T06:08:02.851Z,585.3
2022-09-12T06:09:05.045Z,585.6
2022-09-12T06:10:07.251Z,585.6
2022-09-12T06:11:09.751Z,585
2022-09-12T06:12:11.685Z,585.6
2022-09-12T06:13:13.613Z,585.7
2022-09-12T06:14:15.849Z,585.6
2022-09-12T06:15:18.356Z,585.4
2022-09-12T06:16:21.093Z,585.7
2022-09-12T06:17:23.602Z,586.3
2022-09-12T06:18:25.519Z,585.9
2022-09-12T06:19:27.733Z,585.9
2022-09-12T06:20:29.934Z,585.9
2022-09-12T06:21:32.165Z,586.1
2022-09-12T06:22:34.647Z,586
2022-09-12T06:23:37.130Z,585.9
2022-09-12T06:24:39.646Z,585.9
2022-09-12T06:25:41.849Z,585.2
2022-09-12T06:26:44.347Z,585.4
2022-09-12T06:27:46.817Z,585.5
2022-09-12T06:28:49.299Z,584.8
2022-09-12T06:29:51.815Z,585.4
2022-09-12T06:30:53.658Z,585.3
2022-09-12T06:31:56.151Z,585.7
2022-09-12T06:32:58.392Z,585.6
2022-09-12T06:34:00.638Z,585.7
2022-09-12T06:35:03.157Z,585.9
2022-09-12T06:37:13.582Z,586.5
2022-09-12T06:38:15.499Z,586.4
2022-09-12T06:39:17.445Z,586.5
2022-09-12T06:40:19.647Z,586.4
2022-09-12T06:41:21.872Z,586.7
2022-09-12T06:42:23.819Z,586.5
2022-09-12T06:43:25.759Z,586.1
2022-09-12T06:44:28.277Z,586.3
2022-09-12T06:45:30.770Z,586.2
2022-09-12T06:46:32.991Z,586.1
2022-09-12T06:47:35.468Z,585.8
2022-09-12T06:49:42.640Z,585.7
2022-09-12T06:50:44.564Z,585.6
2022-09-12T06:51:46.783Z,585.8
2022-09-12T06:52:49.274Z,585.6
2022-09-12T06:53:51.755Z,585.6
2022-09-12T06:54:54.270Z,585.8
2022-09-12T06:55:56.747Z,585.6
2022-09-12T06:56:59.228Z,585.4
2022-09-12T06:58:01.171Z,585.8
2022-09-12T06:59:03.353Z,585.6
2022-09-12T07:00:05.293Z,585.3
2022-09-12T07:01:07.965Z,585.4
2022-09-12T07:02:10.534Z,585.4
2022-09-12T07:03:13.034Z,585.6
2022-09-12T07:04:15.224Z,585.8
2022-09-12T07:05:17.170Z,585.5
2022-09-12T07:06:19.738Z,585.5
2022-09-12T07:07:21.938Z,585.4
2022-09-12T07:08:24.119Z,585.3
2022-09-12T07:09:26.592Z,585.6
2022-09-12T07:10:29.088Z,585.4
2022-09-12T07:11:31.268Z,585.7
2022-09-12T07:12:33.470Z,585.7
2022-09-12T07:13:35.667Z,585.2
2022-09-12T07:14:38.145Z,585.4
2022-09-12T07:15:40.077Z,585.5
2022-09-12T07:16:42.997Z,585.4
2022-09-12T07:17:45.626Z,585.5
2022-09-12T07:18:47.826Z,585.2
2022-09-12T07:19:50.307Z,585.4
2022-09-12T07:20:52.782Z,585.7
2022-09-12T07:22:59.999Z,585.7
2022-09-12T07:24:02.475Z,585.4
2022-09-12T07:25:04.955Z,585.4
2022-09-12T07:26:07.439Z,585.4
2022-09-12T07:27:09.644Z,585.3
2022-09-12T07:28:12.111Z,585.3
2022-09-12T07:30:19.324Z,585.1
2022-09-12T07:31:21.794Z,585.1
2022-09-12T07:32:24.018Z,585.2
2022-09-12T07:33:26.525Z,585.1
2022-09-12T07:34:29.017Z,585.1
2022-09-12T07:35:31.485Z,585.6
2022-09-12T07:36:33.997Z,585.1
2022-09-12T07:37:36.472Z,585.1
2022-09-12T07:38:38.959Z,584.9
2022-09-12T07:39:41.613Z,584.8
2022-09-12T07:40:44.116Z,584.9
2022-09-12T07:41:46.337Z,584.9
2022-09-12T07:42:48.266Z,584.8
2022-09-12T07:43:50.465Z,584.9
2022-09-12T07:44:52.939Z,584.7
2022-09-12T07:45:55.702Z,584.8
2022-09-12T07:46:58.207Z,584.6
2022-09-12T07:48:00.465Z,584.8
2022-09-12T07:49:02.691Z,584.8
2022-09-12T07:50:04.916Z,584.6
2022-09-12T07:51:07.110Z,585.3
2022-09-12T07:52:09.602Z,584.8
2022-09-12T07:53:11.803Z,585.1
2022-09-12T07:54:14.292Z,585
2022-09-12T07:55:15.931Z,584.7
2022-09-12T07:56:18.402Z,584.9
2022-09-12T07:57:20.914Z,584.7
2022-09-12T07:58:23.437Z,584.8
2022-09-12T08:00:30.922Z,584.7
2022-09-12T08:01:33.846Z,585.1
2022-09-12T08:02:36.626Z,584.7
2022-09-12T08:03:38.841Z,585
2022-09-12T08:04:41.073Z,585.1
2022-09-12T08:05:43.266Z,584.9
2022-09-12T08:06:45.743Z,584.2
2022-09-12T08:07:48.238Z,584.8
2022-09-12T08:08:50.437Z,584.3
2022-09-12T08:09:52.925Z,584.4
2022-09-12T08:10:55.410Z,584.6
2022-09-12T08:11:57.892Z,584.5
2022-09-12T08:13:00.107Z,584.7
2022-09-12T08:14:02.585Z,584.8
2022-09-12T08:15:04.786Z,584.5
2022-09-12T08:16:07.271Z,584.4
2022-09-12T08:17:09.797Z,584.7
2022-09-12T08:18:12.014Z,584.6
2022-09-12T08:19:14.262Z,584.4
2022-09-12T08:20:16.481Z,584.6
2022-09-12T08:21:18.949Z,584.6
2022-09-12T08:22:21.166Z,584.9
2022-09-12T08:23:23.400Z,584.2
2022-09-12T08:24:25.328Z,584.4
2022-09-12T08:25:27.553Z,584.5
2022-09-12T08:26:30.024Z,584.4
2022-09-12T08:27:32.512Z,583.7
2022-09-12T08:28:34.749Z,584.3
2022-09-12T08:29:36.941Z,584.3
2022-09-12T08:30:39.581Z,584
2022-09-12T08:31:41.773Z,584.5
2022-09-12T08:32:44.033Z,584.2
2022-09-12T08:33:46.432Z,583.7
2022-09-12T08:34:49.030Z,584.4
2022-09-12T08:35:51.541Z,583.7
2022-09-12T08:36:54.011Z,584.3
2022-09-12T08:37:56.484Z,584.4
2022-09-12T08:40:04.035Z,584
2022-09-12T08:41:06.262Z,584.2
2022-09-12T08:42:09.037Z,584.5
2022-09-12T08:43:10.966Z,584.4
2022-09-12T08:44:13.193Z,584.8
2022-09-12T08:45:15.400Z,584.7
2022-09-12T08:46:18.208Z,584.2
2022-09-12T08:47:20.439Z,584.4
2022-09-12T08:48:22.980Z,584.8
2022-09-12T08:49:25.462Z,584.2
2022-09-12T08:50:27.963Z,584.8
2022-09-12T08:51:30.189Z,584.9
2022-09-12T08:52:32.685Z,585.2
2022-09-12T08:53:34.950Z,584.9
2022-09-12T08:54:37.448Z,584.8
2022-09-12T08:55:39.659Z,585
2022-09-12T08:56:42.157Z,585
2022-09-12T08:57:44.628Z,585.1
2022-09-12T08:58:47.103Z,585.1
2022-09-12T08:59:49.624Z,584.7
2022-09-12T09:00:51.855Z,584.9
2022-09-12T09:01:54.631Z,585.3
2022-09-12T09:02:56.965Z,585
2022-09-12T09:03:59.207Z,585.3
2022-09-12T09:05:01.410Z,585.3
2022-09-12T09:06:03.640Z,585.2
2022-09-12T09:07:06.138Z,585.5
2022-09-12T09:08:08.608Z,585.5
2022-09-12T09:09:11.095Z,585.2
2022-09-12T09:10:13.309Z,585.5
2022-09-12T09:11:15.786Z,585.4
2022-09-12T09:12:18.021Z,585.8
2022-09-12T09:13:20.499Z,585.7
2022-09-12T09:14:23.001Z,585.7
2022-09-12T09:15:25.590Z,586
2022-09-12T09:16:28.136Z,586.2
2022-09-12T09:17:30.329Z,586.2
2022-09-12T09:18:31.956Z,586.5
2022-09-12T09:19:34.180Z,586.5
2022-09-12T09:20:36.385Z,586.4
2022-09-12T09:21:38.884Z,586.7
2022-09-12T09:22:40.553Z,586.9
2022-09-12T09:23:43.214Z,586.8
2022-09-12T09:24:45.137Z,586.7
2022-09-12T09:25:47.331Z,586.8
2022-09-12T09:26:49.533Z,586.9
2022-09-12T09:27:51.756Z,586.9
2022-09-12T09:28:53.954Z,586.9
2022-09-12T09:29:56.446Z,586.9
2022-09-12T09:30:59.349Z,586.9
2022-09-12T09:32:01.062Z,587.1
2022-09-12T09:33:03.272Z,587.4
2022-09-12T09:34:05.450Z,587.6
2022-09-12T09:35:07.703Z,587.1
2022-09-12T09:36:09.607Z,587.1
2022-09-12T09:37:11.541Z,587.2
2022-09-12T09:38:14.035Z,587
2022-09-12T09:39:15.954Z,587.2
2022-09-12T09:40:19.116Z,587
2022-09-12T09:41:21.370Z,586.9
2022-09-12T09:42:23.547Z,587.3
2022-09-12T09:43:26.058Z,586.9
2022-09-12T09:44:28.534Z,587.9
2022-09-12T09:45:30.728Z,587.4
2022-09-12T09:46:33.481Z,587.5
2022-09-12T09:47:36.004Z,587.4
2022-09-12T09:48:38.291Z,587.6
2022-09-12T09:49:40.244Z,587.6
2022-09-12T09:50:42.184Z,587.6
2022-09-12T09:51:44.675Z,588.3
2022-09-12T09:52:46.886Z,587.9
2022-09-12T09:53:49.404Z,588
2022-09-12T09:54:51.327Z,588.2
2022-09-12T09:55:53.532Z,588.2
2022-09-12T09:56:56.000Z,587.9
2022-09-12T09:57:58.481Z,587.6
2022-09-12T09:59:00.701Z,587.7
2022-09-12T10:00:03.194Z,587.9
2022-09-12T10:01:05.705Z,588
2022-09-12T10:02:08.455Z,587.7
2022-09-12T10:04:15.947Z,587.7
2022-09-12T10:05:18.428Z,587.6
2022-09-12T10:06:20.952Z,587.5
2022-09-12T10:07:23.143Z,588.1
2022-09-12T10:08:25.656Z,587.7
2022-09-12T10:09:28.158Z,587.9
2022-09-12T10:10:30.352Z,588.1
2022-09-12T10:11:32.547Z,587.7
2022-09-12T10:12:34.768Z,588.2
2022-09-12T10:13:37.277Z,588
2022-09-12T10:14:39.493Z,587.8
2022-09-12T10:15:42.284Z,588
2022-09-12T10:16:44.803Z,588.1
2022-09-12T10:17:47.405Z,587.9
2022-09-12T10:18:49.883Z,588.1
2022-09-12T10:20:57.350Z,588.2
2022-09-12T10:21:59.602Z,588.1
2022-09-12T10:23:02.081Z,588.1
2022-09-12T10:24:04.600Z,588.5
2022-09-12T10:25:06.912Z,588.3
2022-09-12T10:26:09.114Z,588.4
2022-09-12T10:27:11.028Z,588.3
2022-09-12T10:28:13.235Z,588.4
2022-09-12T10:29:15.439Z,588.6
2022-09-12T10:30:17.653Z,588.5
2022-09-12T10:31:20.424Z,588.9
2022-09-12T10:32:24.546Z,588.8
2022-09-12T10:33:29.875Z,589
2022-09-12T10:34:32.126Z,589.2
2022-09-12T10:35:34.313Z,589
2022-09-12T10:36:36.506Z,589.4
2022-09-12T10:37:38.996Z,589.2
2022-09-12T10:38:41.466Z,589.2
2022-09-12T10:39:44.128Z,589.6
2022-09-12T10:40:46.652Z,589.6
2022-09-12T10:41:49.121Z,589.7
2022-09-12T10:42:51.599Z,589.8
2022-09-12T10:43:53.784Z,589.7
2022-09-12T10:44:56.249Z,589.7
2022-09-12T10:45:59.132Z,589.6
2022-09-12T10:47:01.651Z,589.7
2022-09-12T10:49:08.908Z,589.8
2022-09-12T10:51:16.869Z,589.8
2022-09-12T10:52:19.111Z,589.4
2022-09-12T10:53:21.118Z,589.6
2022-09-12T10:54:23.585Z,589.4
2022-09-12T10:55:26.086Z,589.5
2022-09-12T10:56:28.330Z,589.7
2022-09-12T10:57:30.243Z,589.8
2022-09-12T10:58:32.421Z,589.7
2022-09-12T10:59:34.620Z,590.2
2022-09-12T11:00:36.814Z,589.9
2022-09-12T11:01:39.722Z,590.1
2022-09-12T11:02:42.418Z,590
2022-09-12T11:03:44.692Z,590.1
2022-09-12T11:04:47.187Z,590.2
2022-09-12T11:05:49.665Z,590.1
2022-09-12T11:06:52.148Z,590.4
2022-09-12T11:07:54.353Z,589.8
2022-09-12T11:08:56.845Z,590.3
2022-09-12T11:09:58.763Z,590.3
2022-09-12T11:11:01.269Z,590.2
2022-09-12T11:12:03.250Z,590.4
2022-09-12T11:13:05.740Z,590.4
2022-09-12T11:14:08.233Z,590.5
2022-09-12T11:15:10.729Z,590.4
2022-09-12T11:16:13.716Z,590.8
2022-09-12T11:17:16.220Z,590.9
2022-09-12T11:18:18.437Z,590.7
2022-09-12T11:19:20.633Z,590.8
2022-09-12T11:20:23.159Z,590.7
2022-09-12T11:21:25.633Z,590.9
2022-09-12T11:23:32.535Z,591.1
2022-09-12T11:24:34.755Z,591.1
2022-09-12T11:25:37.231Z,591.1
2022-09-12T11:26:39.178Z,591.1
2022-09-12T11:27:41.406Z,590.9
2022-09-12T11:29:49.063Z,591.1
2022-09-12T11:30:51.466Z,591.2
2022-09-12T11:31:53.962Z,591.3
2022-09-12T11:32:56.481Z,591.3
2022-09-12T11:33:59.023Z,591.1
2022-09-12T11:35:00.929Z,591.5
2022-09-12T11:36:03.442Z,591.3
2022-09-12T11:38:10.907Z,591.5
2022-09-12T11:39:13.110Z,590.7
2022-09-12T11:40:15.900Z,591.2
2022-09-12T11:41:18.383Z,591.1
2022-09-12T11:42:20.882Z,591.1
2022-09-12T11:43:23.373Z,591.2
2022-09-12T11:44:25.320Z,591.4
2022-09-12T11:45:27.519Z,591.5
2022-09-12T11:46:29.969Z,591.6
2022-09-12T11:47:32.161Z,591.9
2022-09-12T11:48:34.671Z,592
2022-09-12T11:49:37.549Z,592.4
2022-09-12T11:50:39.767Z,592.1
2022-09-12T11:51:42.256Z,592.4
2022-09-12T11:52:44.449Z,592.5
2022-09-12T11:53:47.523Z,592.6
2022-09-12T11:55:55.105Z,592.3
2022-09-12T11:56:57.298Z,592.4
2022-09-12T11:57:59.790Z,592.4
2022-09-12T11:59:02.286Z,592.2
2022-09-12T12:00:04.767Z,592.4
2022-09-12T12:01:06.957Z,592.8
2022-09-12T12:02:09.772Z,592.6
2022-09-12T12:03:12.315Z,592.3
2022-09-12T12:04:14.845Z,592.6
2022-09-12T12:05:17.378Z,592.3
2022-09-12T12:06:19.872Z,592.1
2022-09-12T12:07:22.364Z,592.5
2022-09-12T12:08:24.843Z,592.5
2022-09-12T12:09:27.052Z,592.5
2022-09-12T12:10:29.237Z,592.3
2022-09-12T12:11:31.436Z,592.3
2022-09-12T12:12:33.910Z,592.8
2022-09-12T12:13:36.400Z,592.5
2022-09-12T12:14:38.913Z,592.3
2022-09-12T12:15:41.715Z,592.3
2022-09-12T12:16:44.274Z,593
2022-09-12T12:17:46.746Z,592.5
2022-09-12T12:18:49.383Z,592.2
2022-09-12T12:19:51.875Z,592.3
2022-09-12T12:20:54.354Z,592.4
2022-09-12T12:21:56.568Z,592.5
2022-09-12T12:22:58.783Z,592.6
2022-09-12T12:24:00.990Z,592.5
2022-09-12T12:25:03.189Z,592.7
2022-09-12T12:26:05.662Z,592.6
2022-09-12T12:27:08.195Z,593.2
2022-09-12T12:28:10.669Z,593.5
2022-09-12T12:29:13.176Z,593.6
2022-09-12T12:30:15.102Z,593.7
2022-09-12T12:31:18.160Z,593.9
2022-09-12T12:32:20.187Z,594.1
2022-09-12T12:33:22.396Z,594.2
2022-09-12T12:34:24.865Z,593.7
2022-09-12T12:35:27.073Z,593.8
2022-09-12T12:36:29.275Z,593.7
2022-09-12T12:37:31.757Z,593.3
2022-09-12T12:38:33.687Z,593.7
2022-09-12T12:39:35.884Z,594
2022-09-12T12:40:38.367Z,593.8
2022-09-12T12:41:40.844Z,593.7
2022-09-12T12:42:43.341Z,594.6
2022-09-12T12:43:45.853Z,594.5
2022-09-12T12:44:48.441Z,594.5
2022-09-12T12:45:51.106Z,594.7
2022-09-12T12:46:53.604Z,595.1
2022-09-12T12:47:55.815Z,595
2022-09-12T12:48:58.015Z,594.7
2022-09-12T12:50:00.485Z,594.8
2022-09-12T12:51:02.694Z,595.1
2022-09-12T12:52:04.599Z,594.9
2022-09-12T12:53:06.814Z,595.2
2022-09-12T12:55:14.299Z,595.3
2022-09-12T12:56:16.809Z,595.6
2022-09-12T12:57:19.021Z,595.6
2022-09-12T12:58:21.236Z,595.6
2022-09-12T12:59:23.442Z,595
2022-09-12T13:00:25.933Z,595.7
2022-09-12T13:01:28.477Z,595.3
2022-09-12T13:02:31.370Z,595.4
2022-09-12T13:03:33.306Z,595.6
2022-09-12T13:04:35.781Z,595.9
2022-09-12T13:05:38.257Z,595.9
2022-09-12T13:06:40.208Z,595.8
2022-09-12T13:07:42.685Z,596
2022-09-12T13:08:45.002Z,595.9
2022-09-12T13:09:47.235Z,595.6
2022-09-12T13:10:50.244Z,596.1
2022-09-12T13:11:52.723Z,596.4
2022-09-12T13:12:54.924Z,597.1
2022-09-12T13:13:57.416Z,596.9
2022-09-12T13:14:59.910Z,596.9
2022-09-12T13:16:02.789Z,597.2
2022-09-12T13:17:05.301Z,597.4
2022-09-12T13:18:07.255Z,597.4
2022-09-12T13:19:09.731Z,597.8
2022-09-12T13:21:17.212Z,598.3
2022-09-12T13:22:19.716Z,598.7
2022-09-12T13:23:22.195Z,598.8
2022-09-12T13:24:24.664Z,598.8
2022-09-12T13:25:26.895Z,598.7
2022-09-12T13:26:29.090Z,599
2022-09-12T13:27:31.564Z,599.3
2022-09-12T13:28:34.049Z,599.1
2022-09-12T13:29:36.272Z,598.8
2022-09-12T13:30:39.127Z,598.8
2022-09-12T13:32:48.654Z,599.1
2022-09-12T13:33:51.124Z,598.7
2022-09-12T13:34:53.605Z,599.2
2022-09-12T13:35:55.521Z,598.8
2022-09-12T13:36:57.741Z,598.9
2022-09-12T13:38:00.237Z,599.1
2022-09-12T13:39:02.144Z,599.1
2022-09-12T13:40:04.519Z,598.9
2022-09-12T13:41:06.492Z,599
2022-09-12T13:42:08.718Z,598.8
2022-09-12T13:43:10.905Z,599
2022-09-12T13:44:12.529Z,598.7
2022-09-12T13:45:15.027Z,599
2022-09-12T13:46:17.397Z,598.5
2022-09-12T13:47:19.648Z,599.1
2022-09-12T13:48:21.868Z,599.2
2022-09-12T13:49:24.347Z,599
2022-09-12T13:50:26.817Z,599.3
2022-09-12T13:51:29.043Z,599.6
2022-09-12T13:52:31.250Z,599.6
2022-09-12T13:53:33.507Z,599.8
2022-09-12T13:54:35.427Z,599.9